Destinations Cork Airport

Cork Airport (EICK / ORK)

Flights to Cork Airport

Flight number From ETE Dispatch
SPY-206 EHGG Groningen Airport Eelde 02:15
SPY-4302 EIDW Dublin Airport 01:00

Flights from Cork Airport

Flight number To ETE Dispatch
SPY-207 EHGG Groningen Airport Eelde 02:15
SPY-4303 EIDW Dublin Airport 01:00
About

Cork Airport facts

Cork Airport is located in Cork at an elevation of 153.0 meters or 502 feet.

Currently, Speedy Airlines serves 4 flights to and from Cork Airport.

Detailed airport info

Route map

Weather

Current weather

METAR

METAR

Metar data retrieved Sunday, 21 July 2024 at 20:25 UTC

EICK 212000Z 23013KT 8000 -DZ FEW003 BKN004 BKN010 15/15 Q1008 TEMPO 2000 BKN002
Wind Temperature Low clouds warning Visibility
13 kt 15c Clouds lower than 1000ft and either broken, overcast or vertical visibility Clouds below 500ft